Time;durP1;ratioP1;P1;durP2;ratioP2;P2;SDS_P1;SDS_P2;PMS_P1;PMS_P2;Temp;Humidity;BMP_temperature;BMP_pressure;BME280_temperature;BME280_humidity;BME280_pressure;Samples;Min_cycle;Max_cycle;Signal;HPM_P1;HPM_P2
2023/01/05 00:01:02;;;;;;;29.80;6.30;;;10.90;1.00;;;;;;4856725;29;20206;-71
2023/01/05 00:03:29;;;;;;;35.03;6.60;;;11.00;1.00;;;;;;4857279;29;20212;-69
2023/01/05 00:06:00;;;;;;;28.07;6.77;;;11.00;1.00;;;;;;4841425;29;20547;-70
2023/01/05 00:08:27;;;;;;;30.93;6.53;;;11.00;1.00;;;;;;4857310;29;20240;-69
2023/01/05 00:22:29;;;;;;;23.93;5.90;;;11.10;1.00;;;;;;4863336;29;20266;-71
2023/01/05 00:25:02;;;;;;;23.83;5.50;;;11.20;1.00;;;;;;4849112;29;20309;-70
2023/01/05 00:27:39;;;;;;;24.67;5.13;;;11.20;1.00;;;;;;4848812;29;20753;-70
2023/01/05 00:30:07;;;;;;;20.73;5.63;;;11.20;1.00;;;;;;4871803;29;20771;-70
2023/01/05 00:32:34;;;;;;;18.77;4.83;;;11.10;1.00;;;;;;4844108;29;20214;-73
2023/01/05 00:35:04;;;;;;;26.40;5.57;;;11.20;1.00;;;;;;4864862;29;20231;-70
2023/01/05 00:37:35;;;;;;;21.13;5.27;;;11.10;1.00;;;;;;4859223;29;20246;-70
2023/01/05 00:40:02;;;;;;;23.77;5.00;;;11.10;1.00;;;;;;4858201;29;20205;-70
2023/01/05 00:42:29;;;;;;;27.20;5.37;;;11.10;1.00;;;;;;4875030;29;20662;-70
2023/01/05 00:44:56;;;;;;;23.60;5.07;;;11.00;1.00;;;;;;4875504;29;20302;-70
2023/01/05 00:47:23;;;;;;;25.53;5.23;;;10.90;1.00;;;;;;4859453;29;20474;-71
2023/01/05 00:49:50;;;;;;;21.90;4.70;;;11.00;1.00;;;;;;4858643;29;20204;-72
2023/01/05 00:52:17;;;;;;;23.53;4.73;;;10.90;1.00;;;;;;4858420;29;20259;-72
2023/01/05 00:54:44;;;;;;;23.83;5.17;;;10.90;1.00;;;;;;4859005;29;20697;-72
2023/01/05 00:57:13;;;;;;;23.20;5.47;;;10.80;1.00;;;;;;4858948;29;20218;-70
2023/01/05 00:59:40;;;;;;;24.37;5.60;;;11.00;1.00;;;;;;4875012;29;20198;-69
2023/01/05 01:02:08;;;;;;;28.50;4.93;;;11.00;1.00;;;;;;4875340;29;20285;-69
2023/01/05 01:04:35;;;;;;;21.70;4.67;;;10.90;1.00;;;;;;4851303;29;20890;-70
2023/01/05 01:07:04;;;;;;;22.77;4.60;;;10.80;1.00;;;;;;4874908;29;20197;-70
2023/01/05 01:09:31;;;;;;;22.60;5.87;;;10.80;1.00;;;;;;4852319;29;20209;-70
2023/01/05 01:11:58;;;;;;;29.17;5.77;;;10.90;1.00;;;;;;4874832;29;20207;-69
2023/01/05 01:14:25;;;;;;;22.77;5.57;;;10.80;1.00;;;;;;4873513;29;20339;-69
2023/01/05 01:16:52;;;;;;;25.50;5.83;;;10.80;1.00;;;;;;4874558;29;20197;-70
2023/01/05 01:19:22;;;;;;;26.97;4.73;;;10.70;1.00;;;;;;4858381;29;20214;-69
2023/01/05 01:21:49;;;;;;;25.70;5.70;;;10.70;1.00;;;;;;4842179;29;20258;-70
2023/01/05 01:24:22;;;;;;;21.93;4.80;;;10.70;1.00;;;;;;4874130;29;20300;-70
2023/01/05 01:26:49;;;;;;;16.57;4.50;;;10.80;1.00;;;;;;4857880;29;20213;-70
2023/01/05 01:29:17;;;;;;;24.40;5.67;;;10.80;1.00;;;;;;4864557;29;20301;-69
2023/01/05 01:31:48;;;;;;;21.27;5.00;;;10.80;1.00;;;;;;4857690;29;20234;-69
2023/01/05 01:34:15;;;;;;;24.57;4.93;;;10.70;1.00;;;;;;4874591;29;20209;-70
2023/01/05 01:36:43;;;;;;;26.30;5.40;;;10.70;1.00;;;;;;4842936;29;20257;-71
2023/01/05 01:39:14;;;;;;;18.10;4.90;;;10.70;1.00;;;;;;4857467;29;20234;-71
2023/01/05 01:41:45;;;;;;;23.30;5.30;;;10.80;1.00;;;;;;4857838;29;20569;-71
2023/01/05 01:44:48;;;;;;;23.60;5.17;;;10.70;1.00;;;;;;4864860;29;20202;-70
2023/01/05 01:47:28;;;;;;;26.00;5.57;;;10.70;1.00;;;;;;4871635;29;20202;-70
2023/01/05 01:49:58;;;;;;;25.40;4.90;;;10.60;1.00;;;;;;4850951;29;20593;-71
2023/01/05 01:52:28;;;;;;;22.37;5.97;;;10.50;1.00;;;;;;4858240;29;20229;-71
2023/01/05 01:54:56;;;;;;;19.67;5.40;;;10.40;1.00;;;;;;4858149;29;20777;-70
2023/01/05 01:57:25;;;;;;;22.13;5.27;;;10.40;1.00;;;;;;4857240;29;20212;-71
2023/01/05 01:59:53;;;;;;;27.57;6.40;;;10.40;1.00;;;;;;4842378;29;20314;-71
2023/01/05 02:02:22;;;;;;;28.13;5.70;;;10.50;1.00;;;;;;4857968;29;20205;-70
2023/01/05 02:04:50;;;;;;;24.03;5.70;;;10.50;1.00;;;;;;4873440;29;20216;-70
2023/01/05 02:07:17;;;;;;;22.30;4.77;;;10.60;1.00;;;;;;4842706;29;20213;-71
2023/01/05 02:09:45;;;;;;;23.13;5.53;;;10.50;1.00;;;;;;4858076;29;21101;-71
2023/01/05 02:12:38;;;;;;;24.20;4.93;;;10.50;1.00;;;;;;4849502;29;20687;-70
2023/01/05 02:15:05;;;;;;;31.30;5.23;;;10.40;1.00;;;;;;4855322;29;20277;-70
2023/01/05 02:17:51;;;;;;;34.20;5.73;;;10.40;1.00;;;;;;4872230;29;20816;-70
2023/01/05 02:20:37;;;;;;;27.63;4.90;;;10.40;1.00;;;;;;4872460;29;20296;-70
2023/01/05 02:23:12;;;;;;;21.40;5.63;;;10.30;1.00;;;;;;4842232;29;20272;-70
2023/01/05 02:26:04;;;;;;;38.20;5.67;;;10.40;1.00;;;;;;4858531;29;21136;-70
2023/01/05 02:28:50;;;;;;;29.87;6.57;;;10.40;1.00;;;;;;4850604;29;20645;-70
2023/01/05 02:31:23;;;;;;;25.23;5.33;;;10.50;1.00;;;;;;4850040;29;20300;-70
2023/01/05 02:34:00;;;;;;;18.97;4.53;;;10.50;1.00;;;;;;4857487;29;20210;-70
2023/01/05 02:37:18;;;;;;;24.30;5.60;;;10.50;1.00;;;;;;4849744;29;20213;-70
2023/01/05 02:39:49;;;;;;;32.93;5.97;;;10.60;1.00;;;;;;4848384;29;20677;-71
2023/01/05 02:42:23;;;;;;;25.93;5.20;;;10.60;1.00;;;;;;4849999;29;20198;-70
2023/01/05 02:44:51;;;;;;;25.43;5.30;;;10.50;1.00;;;;;;4856593;29;20205;-71
2023/01/05 02:47:26;;;;;;;26.60;5.37;;;10.60;1.00;;;;;;4858649;29;20210;-70
2023/01/05 02:50:01;;;;;;;26.23;5.67;;;10.60;1.00;;;;;;4858086;29;20208;-70
2023/01/05 02:52:39;;;;;;;35.10;5.50;;;10.60;1.00;;;;;;4851131;29;20213;-70
2023/01/05 02:55:10;;;;;;;22.50;4.50;;;10.60;1.00;;;;;;4849530;29;20221;-70
2023/01/05 02:57:46;;;;;;;16.97;5.27;;;10.60;1.00;;;;;;4858713;29;20241;-71
2023/01/05 03:00:24;;;;;;;30.13;5.03;;;10.50;1.00;;;;;;4857343;29;20190;-72
2023/01/05 03:02:56;;;;;;;18.03;5.10;;;10.60;1.00;;;;;;4850502;29;20217;-71
2023/01/05 03:05:50;;;;;;;22.83;5.77;;;10.60;1.00;;;;;;4857901;29;20266;-72
2023/01/05 03:08:22;;;;;;;26.77;5.17;;;10.50;1.00;;;;;;4875407;29;20628;-72
2023/01/05 03:14:02;;;;;;;25.33;5.13;;;10.60;1.00;;;;;;4861470;29;20209;-71
2023/01/05 03:16:34;;;;;;;22.93;5.37;;;10.60;1.00;;;;;;4859878;29;20193;-70
2023/01/05 03:36:20;;;;;;;24.23;4.93;;;10.60;1.00;;;;;;4852796;29;20233;-73
2023/01/05 03:38:50;;;;;;;18.27;4.17;;;10.60;1.00;;;;;;4860980;29;20457;-71
2023/01/05 03:41:19;;;;;;;25.30;5.00;;;10.60;1.00;;;;;;4874792;29;20197;-71
2023/01/05 03:43:47;;;;;;;19.17;4.53;;;10.60;1.00;;;;;;4876331;29;20214;-71
2023/01/05 03:46:19;;;;;;;24.40;4.57;;;10.60;1.00;;;;;;4859793;29;20236;-70
2023/01/05 03:48:47;;;;;;;25.53;5.17;;;10.60;1.00;;;;;;4845777;29;20728;-70
2023/01/05 03:51:17;;;;;;;18.73;4.27;;;10.60;1.00;;;;;;4858740;29;20309;-73
2023/01/05 03:53:45;;;;;;;22.73;4.87;;;10.60;1.00;;;;;;4858794;29;20209;-72
2023/01/05 03:56:12;;;;;;;21.90;5.27;;;10.50;1.00;;;;;;4858062;29;20217;-73
2023/01/05 03:58:39;;;;;;;21.43;5.50;;;10.50;1.00;;;;;;4844189;29;20623;-73
2023/01/05 04:01:07;;;;;;;23.80;5.53;;;10.50;1.00;;;;;;4851871;29;20201;-73
2023/01/05 04:03:36;;;;;;;25.77;4.73;;;10.40;1.00;;;;;;4858861;29;20204;-72
2023/01/05 04:06:05;;;;;;;18.97;4.13;;;10.30;1.00;;;;;;4858142;29;20692;-73
2023/01/05 04:08:34;;;;;;;24.40;5.10;;;10.30;1.00;;;;;;4859695;29;20618;-74
2023/01/05 04:11:17;;;;;;;23.33;5.33;;;10.20;1.00;;;;;;4845401;29;20206;-74
2023/01/05 04:13:52;;;;;;;24.07;5.97;;;10.20;1.00;;;;;;4861104;29;20261;-73
2023/01/05 04:16:20;;;;;;;27.27;4.93;;;10.10;1.00;;;;;;4874005;29;20221;-74
2023/01/05 04:18:49;;;;;;;24.30;5.30;;;10.10;1.00;;;;;;4860417;29;20242;-74
2023/01/05 04:21:18;;;;;;;24.77;6.03;;;10.00;1.00;;;;;;4875196;29;20753;-73
2023/01/05 04:23:48;;;;;;;32.80;5.20;;;10.00;13.90;;;;;;4875881;29;20214;-74
2023/01/05 04:26:15;;;;;;;33.03;5.73;;;9.90;32.60;;;;;;4852915;29;20496;-74
2023/01/05 04:28:46;;;;;;;24.13;5.33;;;9.90;56.00;;;;;;4845092;29;20671;-74
2023/01/05 04:31:13;;;;;;;21.47;4.57;;;9.90;89.50;;;;;;4858485;29;20249;-73
2023/01/05 04:33:44;;;;;;;21.37;4.97;;;9.90;99.90;;;;;;4852606;29;20213;-74
2023/01/05 04:36:15;;;;;;;26.23;4.90;;;9.90;99.90;;;;;;4874031;29;20228;-74
2023/01/05 04:38:42;;;;;;;34.27;6.70;;;9.80;99.90;;;;;;4866747;29;20673;-74
2023/01/05 04:41:10;;;;;;;31.13;6.50;;;9.80;99.90;;;;;;4875789;29;20201;-74
2023/01/05 04:43:39;;;;;;;30.80;6.13;;;9.90;99.90;;;;;;4851177;29;20868;-75
2023/01/05 04:46:07;;;;;;;30.87;5.77;;;9.80;99.90;;;;;;4875366;29;20268;-73
2023/01/05 04:48:34;;;;;;;34.17;6.50;;;9.80;99.90;;;;;;4874273;29;20210;-73
2023/01/05 04:51:03;;;;;;;30.57;5.87;;;9.80;99.90;;;;;;4865084;29;20205;-73
2023/01/05 04:53:34;;;;;;;31.23;6.47;;;9.90;99.90;;;;;;4859773;29;20217;-73
2023/01/05 04:56:05;;;;;;;35.80;6.20;;;9.80;99.90;;;;;;4852031;29;20717;-73
2023/01/05 04:58:38;;;;;;;21.97;4.70;;;9.80;99.90;;;;;;4851829;29;20556;-73
2023/01/05 05:01:05;;;;;;;30.47;6.23;;;9.80;99.90;;;;;;4874553;29;20524;-72
2023/01/05 05:03:34;;;;;;;23.37;5.30;;;9.80;99.90;;;;;;4851939;29;20597;-73
2023/01/05 05:06:04;;;;;;;28.53;6.27;;;9.80;99.90;;;;;;4875728;29;20197;-72
2023/01/05 05:08:32;;;;;;;28.50;6.70;;;9.80;99.90;;;;;;4876231;29;20205;-73
2023/01/05 05:11:00;;;;;;;30.17;6.30;;;9.80;99.90;;;;;;4859618;29;20300;-73
2023/01/05 05:13:30;;;;;;;29.13;6.97;;;9.80;99.90;;;;;;4851100;29;20734;-73
2023/01/05 05:15:59;;;;;;;25.77;5.40;;;9.90;99.90;;;;;;4857892;29;20233;-76
2023/01/05 05:18:27;;;;;;;23.20;5.50;;;9.90;99.90;;;;;;4843603;29;20284;-73
2023/01/05 05:20:55;;;;;;;28.47;5.70;;;9.80;99.90;;;;;;4851029;29;20208;-73
2023/01/05 05:23:27;;;;;;;28.80;6.10;;;9.80;99.90;;;;;;4867324;29;20589;-73
2023/01/05 05:25:54;;;;;;;27.27;6.00;;;9.90;99.90;;;;;;4858379;29;20419;-72
2023/01/05 05:28:26;;;;;;;28.87;7.07;;;9.90;99.90;;;;;;4857896;29;20206;-72
2023/01/05 05:30:55;;;;;;;27.47;7.43;;;9.90;99.90;;;;;;4847351;29;20273;-75
2023/01/05 05:33:23;;;;;;;25.67;6.40;;;9.90;99.90;;;;;;4855428;29;20596;-76
2023/01/05 05:35:50;;;;;;;26.67;7.07;;;9.90;99.90;;;;;;4857270;29;20218;-73
2023/01/05 05:38:17;;;;;;;27.23;6.13;;;9.90;99.90;;;;;;4864363;29;20675;-74
2023/01/05 05:40:44;;;;;;;28.83;6.13;;;9.90;96.30;;;;;;4857437;29;20202;-74
2023/01/05 05:43:11;;;;;;;22.17;6.83;;;9.90;95.20;;;;;;4847612;29;20302;-73
2023/01/05 05:45:38;;;;;;;24.10;5.83;;;9.90;94.10;;;;;;4856614;29;20575;-73
2023/01/05 05:48:12;;;;;;;29.43;6.27;;;9.90;97.00;;;;;;4855487;29;20194;-73
2023/01/05 05:50:39;;;;;;;32.60;7.07;;;9.90;99.30;;;;;;4847551;29;20758;-73
2023/01/05 05:53:06;;;;;;;27.57;6.60;;;9.90;99.90;;;;;;4855453;29;20214;-73
2023/01/05 05:55:33;;;;;;;26.67;5.80;;;9.90;99.90;;;;;;4847511;29;20711;-73
2023/01/05 05:58:00;;;;;;;30.10;7.20;;;9.90;99.90;;;;;;4854971;29;20726;-75
2023/01/05 06:00:27;;;;;;;24.10;6.30;;;9.90;99.90;;;;;;4856167;29;20611;-73
2023/01/05 06:02:54;;;;;;;30.87;6.97;;;9.90;99.90;;;;;;4839093;29;20213;-76
2023/01/05 06:05:22;;;;;;;27.53;6.63;;;9.90;99.90;;;;;;4854928;29;20218;-75
2023/01/05 06:07:50;;;;;;;35.90;8.40;;;9.90;99.90;;;;;;4855201;29;20215;-73
2023/01/05 06:10:17;;;;;;;34.47;7.57;;;9.80;99.90;;;;;;4856942;29;20666;-73
2023/01/05 06:12:44;;;;;;;33.70;9.00;;;9.80;99.90;;;;;;4847427;29;20217;-73
2023/01/05 06:15:11;;;;;;;37.20;7.67;;;9.70;99.90;;;;;;4853757;29;20556;-76
2023/01/05 06:17:38;;;;;;;37.40;9.13;;;9.70;99.90;;;;;;4856780;29;20210;-72
2023/01/05 06:20:08;;;;;;;26.83;7.20;;;9.70;99.90;;;;;;4856280;29;20254;-72
2023/01/05 06:22:35;;;;;;;29.60;7.53;;;9.70;99.90;;;;;;4854810;29;20202;-72
2023/01/05 06:25:02;;;;;;;36.43;8.40;;;9.60;99.90;;;;;;4862782;29;20567;-72
2023/01/05 06:27:29;;;;;;;32.10;9.00;;;9.60;99.90;;;;;;4847825;29;20317;-72
2023/01/05 06:29:56;;;;;;;37.13;9.00;;;9.60;99.90;;;;;;4862116;29;20244;-72
2023/01/05 06:32:23;;;;;;;28.77;7.97;;;9.60;99.90;;;;;;4858505;29;20190;-73
2023/01/05 06:34:50;;;;;;;34.73;8.67;;;9.60;99.90;;;;;;4873562;29;20214;-71
2023/01/05 06:37:17;;;;;;;35.00;8.80;;;9.60;99.90;;;;;;4857770;29;20220;-73
2023/01/05 06:39:44;;;;;;;38.03;8.97;;;9.50;99.90;;;;;;4864794;29;20193;-81
2023/01/05 06:42:11;;;;;;;35.57;7.97;;;9.50;1.00;;;;;;4874222;29;20202;-72
2023/01/05 06:44:38;;;;;;;33.03;7.67;;;9.40;1.00;;;;;;4853459;29;20221;-73
2023/01/05 06:47:05;;;;;;;38.97;8.50;;;9.40;1.00;;;;;;4878107;29;20714;-73
2023/01/05 06:49:32;;;;;;;32.23;7.97;;;9.40;1.00;;;;;;4878661;29;20236;-77
2023/01/05 06:51:59;;;;;;;34.73;9.10;;;9.50;1.00;;;;;;4877546;29;20564;-77
2023/01/05 06:54:26;;;;;;;32.33;7.60;;;9.50;1.00;;;;;;4868303;29;20424;-72
2023/01/05 06:56:53;;;;;;;31.57;7.83;;;9.60;1.00;;;;;;4868146;29;20769;-72
2023/01/05 06:59:20;;;;;;;34.60;8.10;;;9.60;1.00;;;;;;4876590;29;20678;-72
2023/01/05 07:01:47;;;;;;;23.87;7.47;;;9.50;1.00;;;;;;4878460;29;20273;-72
2023/01/05 07:04:14;;;;;;;36.83;7.83;;;9.30;1.00;;;;;;4861339;29;20208;-73
2023/01/05 07:06:42;;;;;;;40.10;9.07;;;9.30;1.00;;;;;;4877216;29;20209;-72
2023/01/05 07:09:09;;;;;;;36.57;8.20;;;9.30;1.00;;;;;;4877806;29;20205;-72
2023/01/05 07:11:36;;;;;;;34.97;9.00;;;9.40;1.00;;;;;;4878239;29;20210;-74
2023/01/05 07:14:03;;;;;;;34.77;9.33;;;9.40;1.00;;;;;;4861167;29;20225;-72
2023/01/05 07:16:30;;;;;;;36.07;9.73;;;9.40;1.00;;;;;;4877890;29;20306;-75
2023/01/05 07:18:57;;;;;;;37.27;10.23;;;9.50;1.00;;;;;;4853706;29;20205;-73
2023/01/05 07:21:24;;;;;;;29.40;9.23;;;9.50;1.00;;;;;;4877519;29;20190;-72
2023/01/05 07:23:50;;;;;;;35.23;9.73;;;9.50;1.00;;;;;;4877208;29;20200;-71
2023/01/05 07:26:18;;;;;;;40.07;10.83;;;9.60;1.00;;;;;;4878311;29;20229;-71
2023/01/05 07:28:45;;;;;;;40.70;10.33;;;9.60;1.00;;;;;;4877083;29;20689;-71
2023/01/05 07:31:12;;;;;;;37.77;11.47;;;9.50;1.00;;;;;;4877492;29;20242;-74
2023/01/05 07:33:39;;;;;;;27.77;9.80;;;9.50;1.00;;;;;;4877367;29;20928;-71
2023/01/05 07:36:07;;;;;;;34.33;10.20;;;9.50;1.00;;;;;;4853097;29;20221;-71
2023/01/05 07:38:34;;;;;;;30.93;9.77;;;9.60;1.00;;;;;;4860755;29;20198;-72
2023/01/05 07:41:01;;;;;;;34.47;11.13;;;9.60;1.00;;;;;;4877102;29;20190;-72
2023/01/05 07:43:28;;;;;;;31.70;11.37;;;9.60;1.00;;;;;;4859841;29;20274;-74
2023/01/05 07:45:57;;;;;;;33.20;10.37;;;9.60;1.00;;;;;;4875739;29;20209;-74
2023/01/05 07:48:25;;;;;;;31.40;11.00;;;9.60;1.00;;;;;;4860105;29;20325;-74
2023/01/05 07:50:52;;;;;;;32.27;10.37;;;9.60;1.00;;;;;;4876981;29;20213;-76
2023/01/05 07:53:19;;;;;;;33.17;10.50;;;9.60;1.00;;;;;;4867043;29;20201;-75
2023/01/05 07:55:58;;;;;;;35.50;10.43;;;9.70;1.00;;;;;;4876440;29;20219;-72
2023/01/05 07:58:26;;;;;;;31.10;10.03;;;9.60;1.00;;;;;;4860172;29;20565;-72
2023/01/05 08:00:54;;;;;;;30.07;9.67;;;9.60;1.00;;;;;;4859292;29;20198;-77
2023/01/05 08:03:22;;;;;;;29.90;10.60;;;9.60;1.00;;;;;;4844987;29;20678;-73
2023/01/05 08:05:49;;;;;;;32.60;10.10;;;9.70;1.00;;;;;;4859147;29;20257;-74
2023/01/05 08:08:16;;;;;;;27.90;10.20;;;9.70;1.00;;;;;;4876095;29;20202;-72
2023/01/05 08:10:50;;;;;;;43.47;12.50;;;9.70;1.00;;;;;;4877045;29;20233;-72
2023/01/05 08:16:03;;;;;;;36.37;11.83;;;9.70;1.00;;;;;;4860202;29;20214;-74
2023/01/05 08:18:31;;;;;;;35.67;10.60;;;9.70;1.00;;;;;;4877230;29;20261;-72
2023/01/05 08:21:03;;;;;;;34.00;11.37;;;9.70;1.00;;;;;;4875991;29;20633;-72
2023/01/05 08:23:31;;;;;;;36.67;12.13;;;9.80;1.00;;;;;;4860511;29;20230;-72
2023/01/05 08:26:04;;;;;;;35.83;12.27;;;9.80;1.00;;;;;;4861236;29;20206;-72
2023/01/05 08:28:34;;;;;;;31.20;12.73;;;9.80;1.00;;;;;;4867646;29;20213;-72
2023/01/05 08:31:07;;;;;;;40.67;14.07;;;9.80;1.00;;;;;;4876177;29;22584;-73
2023/01/05 08:33:34;;;;;;;30.63;12.80;;;9.80;1.00;;;;;;4874103;29;20201;-72
2023/01/05 08:36:06;;;;;;;37.63;13.27;;;9.80;1.00;;;;;;4870358;29;20293;-73
2023/01/05 08:38:33;;;;;;;34.00;12.97;;;9.80;1.00;;;;;;4860736;29;20241;-70
2023/01/05 08:41:00;;;;;;;39.10;13.37;;;9.80;1.00;;;;;;4853628;29;20213;-72
2023/01/05 08:43:27;;;;;;;36.30;13.07;;;9.80;1.00;;;;;;4874743;29;20714;-71
2023/01/05 08:45:54;;;;;;;35.27;13.70;;;9.80;1.00;;;;;;4876996;29;20226;-72
2023/01/05 08:48:21;;;;;;;35.37;12.80;;;9.80;1.00;;;;;;4852628;29;20205;-74
2023/01/05 08:50:48;;;;;;;28.37;12.40;;;9.80;1.00;;;;;;4868743;29;20241;-71
2023/01/05 08:53:15;;;;;;;27.53;12.47;;;9.80;1.00;;;;;;4872835;29;20202;-71
2023/01/05 08:55:42;;;;;;;35.87;13.80;;;9.80;1.00;;;;;;4859311;29;20232;-71
2023/01/05 08:58:09;;;;;;;29.87;13.17;;;9.90;1.00;;;;;;4866084;29;20213;-74
2023/01/05 09:00:36;;;;;;;34.23;13.40;;;9.90;1.00;;;;;;4865780;29;20205;-72
2023/01/05 09:03:03;;;;;;;34.93;14.53;;;9.90;1.00;;;;;;4859669;29;20693;-72
2023/01/05 09:05:31;;;;;;;36.07;13.60;;;9.90;1.00;;;;;;4876485;29;20231;-71
2023/01/05 09:07:58;;;;;;;33.17;13.33;;;9.90;1.00;;;;;;4875852;29;20292;-71
2023/01/05 09:10:25;;;;;;;35.87;13.53;;;10.00;1.00;;;;;;4843696;29;20206;-71
2023/01/05 09:12:52;;;;;;;31.60;13.67;;;10.00;1.00;;;;;;4858613;29;20211;-73
2023/01/05 09:15:19;;;;;;;36.77;13.20;;;10.10;1.00;;;;;;4844817;29;20229;-72
2023/01/05 09:17:46;;;;;;;38.07;12.60;;;10.20;1.00;;;;;;4868781;29;20214;-72
2023/01/05 09:20:13;;;;;;;26.73;11.07;;;10.30;1.00;;;;;;4843314;29;20205;-72
2023/01/05 09:22:40;;;;;;;25.30;10.30;;;10.40;1.00;;;;;;4866365;29;20197;-72
2023/01/05 09:25:07;;;;;;;31.27;10.70;;;10.30;1.00;;;;;;4872496;29;20815;-72
2023/01/05 09:27:35;;;;;;;32.87;10.50;;;10.20;1.00;;;;;;4849092;29;20296;-72
2023/01/05 09:30:04;;;;;;;28.53;10.37;;;10.20;1.00;;;;;;4872785;29;20234;-72
2023/01/05 09:32:30;;;;;;;30.10;10.00;;;10.20;1.00;;;;;;4852516;29;20226;-72
2023/01/05 09:34:57;;;;;;;33.63;9.83;;;10.20;1.00;;;;;;4874831;29;20269;-72
2023/01/05 09:37:24;;;;;;;37.97;11.60;;;10.10;1.00;;;;;;4875364;29;20217;-72
2023/01/05 09:39:52;;;;;;;30.90;11.37;;;10.30;1.00;;;;;;4875117;29;20230;-72
2023/01/05 09:42:23;;;;;;;36.47;11.10;;;10.70;1.00;;;;;;4867256;29;20614;-71
2023/01/05 09:44:55;;;;;;;31.30;11.53;;;10.80;99.90;;;;;;4849978;29;20197;-75
2023/01/05 09:47:36;;;;;;;32.97;11.77;;;10.70;99.90;;;;;;4858367;29;20257;-72
2023/01/05 09:50:17;;;;;;;29.23;10.47;;;10.60;99.90;;;;;;4858081;29;20269;-72
2023/01/05 09:52:45;;;;;;;31.60;11.40;;;10.50;99.90;;;;;;4874890;29;20193;-71
2023/01/05 09:55:17;;;;;;;38.47;11.37;;;10.50;99.90;;;;;;4874824;29;20281;-71
2023/01/05 09:58:11;;;;;;;42.53;13.10;;;10.40;99.90;;;;;;4852408;29;20570;-71
2023/01/05 10:00:45;;;;;;;43.67;12.60;;;10.40;99.90;;;;;;4857505;29;20806;-71
2023/01/05 10:03:17;;;;;;;38.77;12.83;;;10.50;1.00;;;;;;4837248;29;20741;-71
2023/01/05 10:06:11;;;;;;;31.40;10.73;;;10.70;99.90;;;;;;4874163;29;20200;-71
2023/01/05 10:08:49;;;;;;;39.10;10.57;;;11.00;99.90;;;;;;4851187;29;20198;-72
2023/01/05 10:14:42;;;;;;;41.07;17.67;;;11.20;99.90;;;;;;4854909;29;20198;-71
2023/01/05 10:17:14;;;;;;;34.83;10.83;;;12.00;99.90;;;;;;4869128;29;20240;-71
2023/01/05 10:20:00;;;;;;;32.17;9.07;;;12.00;79.80;;;;;;4863232;29;20197;-71
2023/01/05 10:22:31;;;;;;;30.90;9.37;;;11.70;48.70;;;;;;4881062;29;20219;-71
2023/01/05 10:25:04;;;;;;;30.63;8.90;;;11.40;82.40;;;;;;4856430;29;20234;-72
2023/01/05 10:27:40;;;;;;;35.77;9.03;;;11.30;84.20;;;;;;4861637;29;20205;-71
2023/01/05 10:30:23;;;;;;;31.00;8.03;;;11.20;90.30;;;;;;4878226;29;20229;-71
2023/01/05 10:32:58;;;;;;;28.40;8.13;;;11.70;62.90;;;;;;4878149;29;20212;-72
2023/01/05 10:36:03;;;;;;;28.33;8.27;;;11.60;27.50;;;;;;4863724;29;20212;-72
2023/01/05 10:39:02;;;;;;;41.83;9.37;;;11.30;24.40;;;;;;4877360;29;20568;-72
2023/01/05 10:41:35;;;;;;;32.57;8.23;;;11.30;51.90;;;;;;4877455;29;20277;-73
2023/01/05 10:44:26;;;;;;;31.07;8.30;;;11.30;47.80;;;;;;4875902;29;21155;-73
2023/01/05 10:46:53;;;;;;;35.00;8.33;;;11.30;30.20;;;;;;4876659;29;20193;-72
2023/01/05 10:49:29;;;;;;;31.70;8.13;;;11.20;37.00;;;;;;4852703;29;20209;-71
2023/01/05 10:51:59;;;;;;;26.90;7.93;;;11.20;42.20;;;;;;4860397;29;20646;-73
2023/01/05 10:54:48;;;;;;;27.67;7.57;;;11.30;45.10;;;;;;4860489;29;20312;-73
2023/01/05 10:57:28;;;;;;;36.27;8.70;;;11.20;25.00;;;;;;4862245;29;20323;-74
2023/01/05 11:00:04;;;;;;;35.67;8.63;;;11.20;14.60;;;;;;4853089;29;20742;-73
2023/01/05 11:02:37;;;;;;;29.80;7.80;;;11.40;16.40;;;;;;4854479;29;20770;-73
2023/01/05 11:05:22;;;;;;;30.20;7.37;;;11.40;1.00;;;;;;4875949;29;20209;-73
2023/01/05 11:07:58;;;;;;;26.43;7.20;;;11.50;1.00;;;;;;4860080;29;20678;-72
2023/01/05 11:10:30;;;;;;;28.90;6.43;;;11.50;1.00;;;;;;4859418;29;20205;-73
2023/01/05 11:13:03;;;;;;;24.13;6.20;;;11.40;1.00;;;;;;4861385;29;20281;-73
2023/01/05 11:15:33;;;;;;;29.83;7.83;;;11.40;1.00;;;;;;4859093;29;20206;-72
2023/01/05 11:18:01;;;;;;;25.80;7.00;;;11.40;1.00;;;;;;4878729;29;20222;-73
2023/01/05 11:20:29;;;;;;;27.83;7.77;;;11.40;1.00;;;;;;4859624;29;20590;-73
2023/01/05 11:22:56;;;;;;;28.50;7.33;;;11.40;1.00;;;;;;4877283;29;20209;-73
2023/01/05 11:25:27;;;;;;;28.00;6.97;;;11.40;1.00;;;;;;4851546;29;20755;-72
2023/01/05 11:28:15;;;;;;;27.37;7.47;;;11.50;1.00;;;;;;4861497;29;20672;-72
2023/01/05 11:30:59;;;;;;;29.20;7.23;;;11.50;1.00;;;;;;4855298;29;20237;-73
2023/01/05 11:33:28;;;;;;;26.83;6.70;;;11.40;1.00;;;;;;4838645;29;20221;-73
2023/01/05 11:35:56;;;;;;;25.07;7.70;;;11.30;1.00;;;;;;4876430;29;20201;-72
2023/01/05 11:38:27;;;;;;;35.17;7.57;;;11.40;1.00;;;;;;4861496;29;20265;-72
2023/01/05 11:40:56;;;;;;;25.17;7.03;;;11.30;1.00;;;;;;4875456;29;20253;-72
2023/01/05 11:43:29;;;;;;;32.17;6.53;;;11.50;1.00;;;;;;4877798;29;20714;-73
2023/01/05 11:46:03;;;;;;;28.53;5.93;;;11.50;1.00;;;;;;4874452;29;20465;-73
2023/01/05 11:48:34;;;;;;;33.23;7.40;;;11.40;1.00;;;;;;4857046;29;20631;-73
2023/01/05 11:51:01;;;;;;;36.03;6.97;;;11.30;1.00;;;;;;4874411;29;20201;-72
2023/01/05 11:53:34;;;;;;;25.30;5.90;;;11.30;1.00;;;;;;4854208;29;20855;-72
2023/01/05 11:56:23;;;;;;;31.30;6.47;;;11.20;1.00;;;;;;4874432;29;20622;-72
2023/01/05 11:58:57;;;;;;;28.40;7.03;;;11.20;1.00;;;;;;4874180;29;20206;-72
2023/01/05 12:02:05;;;;;;;25.67;5.83;;;11.40;1.00;;;;;;4876700;29;20658;-73
2023/01/05 12:04:41;;;;;;;26.43;6.47;;;11.50;1.00;;;;;;4874243;29;20281;-73
2023/01/05 12:07:22;;;;;;;30.83;6.67;;;11.50;1.00;;;;;;4875382;29;20194;-73
2023/01/05 12:10:11;;;;;;;29.53;6.80;;;11.50;1.00;;;;;;4875161;29;20721;-72
2023/01/05 12:13:02;;;;;;;31.00;7.20;;;11.50;1.00;;;;;;4844384;29;20692;-73
2023/01/05 12:15:52;;;;;;;25.10;6.00;;;11.50;1.00;;;;;;4851801;29;20198;-73
2023/01/05 12:18:46;;;;;;;27.03;6.70;;;11.60;1.00;;;;;;4855533;29;20245;-72
2023/01/05 12:21:24;;;;;;;28.17;6.23;;;11.50;1.00;;;;;;4875532;29;20702;-72
2023/01/05 12:24:12;;;;;;;25.27;6.73;;;11.50;1.00;;;;;;4845224;29;20281;-71
2023/01/05 12:27:08;;;;;;;23.90;7.17;;;11.50;1.00;;;;;;4858757;29;20225;-72
2023/01/05 12:29:50;;;;;;;24.97;6.03;;;11.40;1.00;;;;;;4851671;29;20736;-73
2023/01/05 12:33:00;;;;;;;33.40;6.70;;;11.40;1.00;;;;;;4875969;29;20193;-73
2023/01/05 12:36:03;;;;;;;19.33;5.73;;;11.40;1.00;;;;;;4876977;29;20227;-73
2023/01/05 12:38:42;;;;;;;23.83;6.27;;;11.40;1.00;;;;;;4877511;29;20656;-73
2023/01/05 12:41:09;;;;;;;24.43;6.83;;;11.40;1.00;;;;;;4859099;29;20206;-73
2023/01/05 12:43:48;;;;;;;25.67;6.17;;;11.40;1.00;;;;;;4860432;29;20762;-74
2023/01/05 12:46:46;;;;;;;33.40;6.17;;;11.40;1.00;;;;;;4875586;29;20266;-73
2023/01/05 12:49:36;;;;;;;20.60;6.27;;;11.40;1.00;;;;;;4857779;29;20198;-73
2023/01/05 12:52:10;;;;;;;28.67;6.30;;;11.40;1.00;;;;;;4836887;29;20296;-73
2023/01/05 12:54:55;;;;;;;20.17;5.53;;;11.50;1.00;;;;;;4860400;29;20190;-72
2023/01/05 12:57:32;;;;;;;28.77;6.80;;;11.40;1.00;;;;;;4852028;29;20213;-72
2023/01/05 13:00:05;;;;;;;20.47;6.17;;;11.40;1.00;;;;;;4842719;29;20300;-72
2023/01/05 13:02:37;;;;;;;25.27;6.83;;;11.40;1.00;;;;;;4876662;29;20258;-73
2023/01/05 13:05:20;;;;;;;25.23;6.70;;;11.40;1.00;;;;;;4876009;29;20242;-73
2023/01/05 13:07:53;;;;;;;26.20;6.50;;;11.50;1.00;;;;;;4860049;29;20197;-72
2023/01/05 13:10:22;;;;;;;23.50;5.67;;;11.40;1.00;;;;;;4853304;29;20233;-72
2023/01/05 13:12:55;;;;;;;23.43;6.10;;;11.30;1.00;;;;;;4875140;29;20602;-73
2023/01/05 13:15:31;;;;;;;23.00;6.50;;;11.30;1.00;;;;;;4874114;29;20547;-72
2023/01/05 13:18:05;;;;;;;22.50;6.10;;;11.20;1.00;;;;;;4873131;29;20209;-73
2023/01/05 13:20:49;;;;;;;23.93;6.13;;;11.20;1.00;;;;;;4860057;29;20621;-73
2023/01/05 13:23:22;;;;;;;27.13;6.87;;;11.20;1.00;;;;;;4867698;29;20666;-73
2023/01/05 13:26:05;;;;;;;19.73;5.80;;;11.20;1.00;;;;;;4850289;29;20236;-72
2023/01/05 13:28:33;;;;;;;24.53;6.20;;;11.10;1.00;;;;;;4857961;29;20745;-73
2023/01/05 13:31:38;;;;;;;26.00;6.50;;;11.10;1.00;;;;;;4856892;29;20252;-73
2023/01/05 13:34:44;;;;;;;21.83;5.73;;;11.00;1.00;;;;;;4874936;29;20201;-73
2023/01/05 13:37:32;;;;;;;21.73;5.47;;;11.00;1.00;;;;;;4859224;29;20257;-72
2023/01/05 13:40:21;;;;;;;27.23;6.20;;;11.00;1.00;;;;;;4841131;29;20277;-72
2023/01/05 13:43:29;;;;;;;19.63;6.07;;;11.20;1.00;;;;;;4874705;29;20214;-73
2023/01/05 13:46:25;;;;;;;33.20;6.73;;;11.20;1.00;;;;;;4861362;29;20232;-72
2023/01/05 13:48:52;;;;;;;22.47;5.57;;;11.20;1.00;;;;;;4856688;29;20236;-73
2023/01/05 13:51:38;;;;;;;31.77;11.80;;;11.10;1.00;;;;;;4875889;29;20205;-73